sensor_id;sensor_type;location;lat;lon;timestamp;pressure;altitude;pressure_sealevel;temperature;humidity
16525;BME280;8375;33.594;-117.718;2023-02-20T00:00:08;100491.56;;;16.96;37.67
16525;BME280;8375;33.594;-117.718;2023-02-20T00:02:37;100493.06;;;16.80;38.70
16525;BME280;8375;33.594;-117.718;2023-02-20T00:05:07;100500.56;;;16.75;40.66
16525;BME280;8375;33.594;-117.718;2023-02-20T00:07:36;100498.91;;;16.74;41.90
16525;BME280;8375;33.594;-117.718;2023-02-20T00:10:06;100503.63;;;16.70;42.95
16525;BME280;8375;33.594;-117.718;2023-02-20T00:12:35;100507.38;;;16.68;43.51
16525;BME280;8375;33.594;-117.718;2023-02-20T00:15:04;100504.81;;;16.58;43.88
16525;BME280;8375;33.594;-117.718;2023-02-20T00:17:33;100504.75;;;16.32;44.54
16525;BME280;8375;33.594;-117.718;2023-02-20T00:20:02;100512.22;;;16.26;44.93
16525;BME280;8375;33.594;-117.718;2023-02-20T00:22:32;100517.47;;;16.26;45.14
16525;BME280;8375;33.594;-117.718;2023-02-20T00:25:01;100513.34;;;16.24;45.16
16525;BME280;8375;33.594;-117.718;2023-02-20T00:27:29;100516.25;;;16.21;46.04
16525;BME280;8375;33.594;-117.718;2023-02-20T00:29:58;100514.09;;;16.16;46.79
16525;BME280;8375;33.594;-117.718;2023-02-20T00:32:27;100512.28;;;16.17;47.40
16525;BME280;8375;33.594;-117.718;2023-02-20T00:34:55;100507.78;;;16.09;47.58
16525;BME280;8375;33.594;-117.718;2023-02-20T00:37:24;100503.56;;;15.98;48.64
16525;BME280;8375;33.594;-117.718;2023-02-20T00:39:54;100502.22;;;15.94;48.88
16525;BME280;8375;33.594;-117.718;2023-02-20T00:42:23;100506.09;;;15.90;49.55
16525;BME280;8375;33.594;-117.718;2023-02-20T00:44:51;100505.59;;;15.66;52.14
16525;BME280;8375;33.594;-117.718;2023-02-20T00:47:20;100507.63;;;15.35;53.43
16525;BME280;8375;33.594;-117.718;2023-02-20T00:49:49;100510.69;;;15.20;54.94
16525;BME280;8375;33.594;-117.718;2023-02-20T00:52:17;100511.22;;;15.24;55.14
16525;BME280;8375;33.594;-117.718;2023-02-20T00:54:46;100509.59;;;15.13;56.12
16525;BME280;8375;33.594;-117.718;2023-02-20T00:57:16;100515.25;;;15.08;56.35
16525;BME280;8375;33.594;-117.718;2023-02-20T00:59:45;100522.00;;;15.11;56.66
16525;BME280;8375;33.594;-117.718;2023-02-20T01:02:14;100519.09;;;15.04;57.30
16525;BME280;8375;33.594;-117.718;2023-02-20T01:04:42;100523.25;;;14.97;58.25
16525;BME280;8375;33.594;-117.718;2023-02-20T01:07:11;100521.59;;;14.76;59.93
16525;BME280;8375;33.594;-117.718;2023-02-20T01:09:40;100527.25;;;14.72;60.94
16525;BME280;8375;33.594;-117.718;2023-02-20T01:12:08;100531.72;;;14.60;62.01
16525;BME280;8375;33.594;-117.718;2023-02-20T01:14:39;100527.88;;;14.64;61.42
16525;BME280;8375;33.594;-117.718;2023-02-20T01:17:09;100529.25;;;14.68;62.25
16525;BME280;8375;33.594;-117.718;2023-02-20T01:19:39;100533.00;;;14.65;63.38
16525;BME280;8375;33.594;-117.718;2023-02-20T01:22:08;100531.59;;;14.51;64.37
16525;BME280;8375;33.594;-117.718;2023-02-20T01:24:37;100533.50;;;14.49;64.82
16525;BME280;8375;33.594;-117.718;2023-02-20T01:27:05;100536.53;;;14.45;65.38
16525;BME280;8375;33.594;-117.718;2023-02-20T01:29:34;100530.31;;;14.36;65.90
16525;BME280;8375;33.594;-117.718;2023-02-20T01:32:04;100535.41;;;14.28;66.52
16525;BME280;8375;33.594;-117.718;2023-02-20T01:34:33;100541.47;;;14.28;65.71
16525;BME280;8375;33.594;-117.718;2023-02-20T01:37:01;100540.34;;;14.31;66.70
16525;BME280;8375;33.594;-117.718;2023-02-20T01:39:30;100533.75;;;14.27;66.62
16525;BME280;8375;33.594;-117.718;2023-02-20T01:42:00;100533.31;;;14.21;67.22
16525;BME280;8375;33.594;-117.718;2023-02-20T01:44:32;100538.97;;;14.17;67.96
16525;BME280;8375;33.594;-117.718;2023-02-20T01:47:03;100541.56;;;14.17;67.91
16525;BME280;8375;33.594;-117.718;2023-02-20T01:49:37;100555.84;;;14.13;68.36
16525;BME280;8375;33.594;-117.718;2023-02-20T01:52:10;100557.75;;;14.11;68.48
16525;BME280;8375;33.594;-117.718;2023-02-20T01:54:42;100552.91;;;14.06;69.21
16525;BME280;8375;33.594;-117.718;2023-02-20T01:57:15;100551.09;;;13.97;69.98
16525;BME280;8375;33.594;-117.718;2023-02-20T01:59:45;100561.94;;;13.92;69.88
16525;BME280;8375;33.594;-117.718;2023-02-20T02:02:15;100556.84;;;13.90;69.93
16525;BME280;8375;33.594;-117.718;2023-02-20T02:04:48;100558.06;;;13.86;70.08
16525;BME280;8375;33.594;-117.718;2023-02-20T02:07:17;100564.94;;;13.87;70.36
16525;BME280;8375;33.594;-117.718;2023-02-20T02:09:50;100558.91;;;13.87;70.29
16525;BME280;8375;33.594;-117.718;2023-02-20T02:12:20;100556.81;;;13.81;70.67
16525;BME280;8375;33.594;-117.718;2023-02-20T02:14:50;100549.25;;;13.77;70.84
16525;BME280;8375;33.594;-117.718;2023-02-20T02:17:37;100568.47;;;13.76;70.85
16525;BME280;8375;33.594;-117.718;2023-02-20T02:27:16;100581.19;;;13.70;71.37
16525;BME280;8375;33.594;-117.718;2023-02-20T02:30:18;100571.00;;;13.67;71.66
16525;BME280;8375;33.594;-117.718;2023-02-20T02:33:17;100577.88;;;13.68;71.34
16525;BME280;8375;33.594;-117.718;2023-02-20T02:38:58;100578.28;;;13.63;71.69
16525;BME280;8375;33.594;-117.718;2023-02-20T02:41:34;100581.25;;;13.58;71.60
16525;BME280;8375;33.594;-117.718;2023-02-20T02:44:11;100583.44;;;13.53;71.75
16525;BME280;8375;33.594;-117.718;2023-02-20T02:46:47;100580.28;;;13.49;71.95
16525;BME280;8375;33.594;-117.718;2023-02-20T02:49:23;100582.03;;;13.49;72.12
16525;BME280;8375;33.594;-117.718;2023-02-20T02:51:54;100585.34;;;13.51;71.71
16525;BME280;8375;33.594;-117.718;2023-02-20T02:54:26;100582.72;;;13.51;71.64
16525;BME280;8375;33.594;-117.718;2023-02-20T02:57:20;100587.31;;;13.59;71.42
16525;BME280;8375;33.594;-117.718;2023-02-20T02:59:54;100587.44;;;13.57;71.71
16525;BME280;8375;33.594;-117.718;2023-02-20T03:02:25;100591.94;;;13.55;71.75
16525;BME280;8375;33.594;-117.718;2023-02-20T03:04:56;100591.41;;;13.52;71.94
16525;BME280;8375;33.594;-117.718;2023-02-20T03:07:28;100587.13;;;13.51;71.84
16525;BME280;8375;33.594;-117.718;2023-02-20T03:10:02;100586.09;;;13.42;72.64
16525;BME280;8375;33.594;-117.718;2023-02-20T03:12:34;100572.22;;;13.41;72.82
16525;BME280;8375;33.594;-117.718;2023-02-20T03:15:09;100560.13;;;13.40;73.19
16525;BME280;8375;33.594;-117.718;2023-02-20T03:18:02;100557.53;;;13.40;73.04
16525;BME280;8375;33.594;-117.718;2023-02-20T03:20:37;100553.97;;;13.41;72.88
16525;BME280;8375;33.594;-117.718;2023-02-20T03:23:08;100551.72;;;13.37;73.14
16525;BME280;8375;33.594;-117.718;2023-02-20T03:25:45;100549.13;;;13.37;72.97
16525;BME280;8375;33.594;-117.718;2023-02-20T03:28:19;100562.75;;;13.40;72.89
16525;BME280;8375;33.594;-117.718;2023-02-20T03:30:52;100559.19;;;13.41;72.59
16525;BME280;8375;33.594;-117.718;2023-02-20T03:33:27;100560.25;;;13.39;72.76
16525;BME280;8375;33.594;-117.718;2023-02-20T03:36:15;100561.91;;;13.40;72.69
16525;BME280;8375;33.594;-117.718;2023-02-20T03:39:06;100560.91;;;13.31;73.08
16525;BME280;8375;33.594;-117.718;2023-02-20T03:41:55;100555.69;;;13.31;72.87
16525;BME280;8375;33.594;-117.718;2023-02-20T03:44:41;100548.56;;;13.33;73.07
16525;BME280;8375;33.594;-117.718;2023-02-20T03:47:13;100549.13;;;13.37;72.70
16525;BME280;8375;33.594;-117.718;2023-02-20T03:49:43;100547.47;;;13.35;72.65
16525;BME280;8375;33.594;-117.718;2023-02-20T03:52:15;100547.16;;;13.29;73.52
16525;BME280;8375;33.594;-117.718;2023-02-20T03:54:44;100521.34;;;13.26;73.58
16525;BME280;8375;33.594;-117.718;2023-02-20T03:57:16;100507.59;;;13.24;73.84
16525;BME280;8375;33.594;-117.718;2023-02-20T03:59:48;100506.88;;;13.21;73.64
16525;BME280;8375;33.594;-117.718;2023-02-20T04:02:21;100536.78;;;13.17;73.35
16525;BME280;8375;33.594;-117.718;2023-02-20T04:04:55;100565.38;;;13.08;74.06
16525;BME280;8375;33.594;-117.718;2023-02-20T04:07:28;100581.84;;;13.08;74.44
16525;BME280;8375;33.594;-117.718;2023-02-20T04:10:00;100582.75;;;12.86;74.72
16525;BME280;8375;33.594;-117.718;2023-02-20T04:12:35;100580.66;;;12.80;75.36
16525;BME280;8375;33.594;-117.718;2023-02-20T04:15:08;100582.75;;;12.86;75.50
16525;BME280;8375;33.594;-117.718;2023-02-20T04:17:41;100568.09;;;12.85;75.81
16525;BME280;8375;33.594;-117.718;2023-02-20T04:20:11;100580.03;;;12.87;75.98
16525;BME280;8375;33.594;-117.718;2023-02-20T04:22:44;100579.66;;;12.92;75.54
16525;BME280;8375;33.594;-117.718;2023-02-20T04:25:20;100586.28;;;12.96;75.42
16525;BME280;8375;33.594;-117.718;2023-02-20T04:27:54;100592.31;;;12.97;75.17
16525;BME280;8375;33.594;-117.718;2023-02-20T04:30:22;100596.00;;;12.94;74.97
16525;BME280;8375;33.594;-117.718;2023-02-20T04:32:51;100590.09;;;12.92;75.02
16525;BME280;8375;33.594;-117.718;2023-02-20T04:35:20;100588.03;;;12.96;74.77
16525;BME280;8375;33.594;-117.718;2023-02-20T04:37:49;100589.59;;;12.98;74.35
16525;BME280;8375;33.594;-117.718;2023-02-20T04:40:19;100601.41;;;13.02;74.25
16525;BME280;8375;33.594;-117.718;2023-02-20T04:42:48;100600.81;;;12.99;74.26
16525;BME280;8375;33.594;-117.718;2023-02-20T04:45:19;100601.66;;;12.99;74.56
16525;BME280;8375;33.594;-117.718;2023-02-20T04:47:47;100600.38;;;12.94;74.53
16525;BME280;8375;33.594;-117.718;2023-02-20T04:50:19;100607.88;;;12.87;74.90
16525;BME280;8375;33.594;-117.718;2023-02-20T04:52:48;100599.22;;;12.86;74.66
16525;BME280;8375;33.594;-117.718;2023-02-20T04:55:16;100603.84;;;12.83;74.76
16525;BME280;8375;33.594;-117.718;2023-02-20T04:57:46;100600.78;;;12.77;74.86
16525;BME280;8375;33.594;-117.718;2023-02-20T05:00:16;100602.31;;;12.80;74.61
16525;BME280;8375;33.594;-117.718;2023-02-20T05:02:47;100601.84;;;12.75;74.45
16525;BME280;8375;33.594;-117.718;2023-02-20T05:05:19;100602.56;;;12.77;74.20
16525;BME280;8375;33.594;-117.718;2023-02-20T05:07:48;100600.31;;;12.72;74.29
16525;BME280;8375;33.594;-117.718;2023-02-20T05:10:21;100601.13;;;12.73;74.15
16525;BME280;8375;33.594;-117.718;2023-02-20T05:12:50;100607.78;;;12.66;74.26
16525;BME280;8375;33.594;-117.718;2023-02-20T05:15:19;100612.44;;;12.62;74.45
16525;BME280;8375;33.594;-117.718;2023-02-20T05:17:49;100615.28;;;12.59;74.49
16525;BME280;8375;33.594;-117.718;2023-02-20T05:20:19;100607.81;;;12.54;74.76
16525;BME280;8375;33.594;-117.718;2023-02-20T05:23:07;100603.69;;;12.52;74.54
16525;BME280;8375;33.594;-117.718;2023-02-20T05:25:35;100602.28;;;12.47;74.78
16525;BME280;8375;33.594;-117.718;2023-02-20T05:28:03;100604.16;;;12.45;74.89
16525;BME280;8375;33.594;-117.718;2023-02-20T05:30:32;100599.19;;;12.42;74.66
16525;BME280;8375;33.594;-117.718;2023-02-20T05:33:02;100594.81;;;12.43;74.96
16525;BME280;8375;33.594;-117.718;2023-02-20T05:35:31;100601.56;;;12.34;74.97
16525;BME280;8375;33.594;-117.718;2023-02-20T05:38:01;100597.91;;;12.25;75.20
16525;BME280;8375;33.594;-117.718;2023-02-20T05:40:29;100592.34;;;12.18;75.57
16525;BME280;8375;33.594;-117.718;2023-02-20T05:42:58;100599.56;;;12.15;75.55
16525;BME280;8375;33.594;-117.718;2023-02-20T05:45:27;100596.63;;;12.08;75.45
16525;BME280;8375;33.594;-117.718;2023-02-20T05:47:55;100587.69;;;11.99;75.81
16525;BME280;8375;33.594;-117.718;2023-02-20T05:50:26;100589.59;;;11.97;75.79
16525;BME280;8375;33.594;-117.718;2023-02-20T05:52:54;100589.13;;;11.92;76.02
16525;BME280;8375;33.594;-117.718;2023-02-20T05:55:23;100593.84;;;11.87;76.17
16525;BME280;8375;33.594;-117.718;2023-02-20T05:57:51;100594.19;;;11.82;76.44
16525;BME280;8375;33.594;-117.718;2023-02-20T06:00:20;100590.19;;;11.78;76.51
16525;BME280;8375;33.594;-117.718;2023-02-20T06:02:49;100593.13;;;11.73;76.81
16525;BME280;8375;33.594;-117.718;2023-02-20T06:05:18;100599.38;;;11.71;77.22
16525;BME280;8375;33.594;-117.718;2023-02-20T06:07:48;100604.22;;;11.64;77.22
16525;BME280;8375;33.594;-117.718;2023-02-20T06:10:18;100600.91;;;11.62;77.84
16525;BME280;8375;33.594;-117.718;2023-02-20T06:12:47;100594.50;;;11.55;81.27
16525;BME280;8375;33.594;-117.718;2023-02-20T06:15:16;100589.41;;;11.42;80.77
16525;BME280;8375;33.594;-117.718;2023-02-20T06:17:45;100594.09;;;11.37;79.88
16525;BME280;8375;33.594;-117.718;2023-02-20T06:20:13;100599.41;;;11.35;79.93
16525;BME280;8375;33.594;-117.718;2023-02-20T06:22:42;100595.50;;;11.29;79.86
16525;BME280;8375;33.594;-117.718;2023-02-20T06:25:12;100595.72;;;11.26;79.85
16525;BME280;8375;33.594;-117.718;2023-02-20T06:27:41;100584.34;;;11.16;80.80
16525;BME280;8375;33.594;-117.718;2023-02-20T06:30:11;100581.03;;;11.14;80.59
16525;BME280;8375;33.594;-117.718;2023-02-20T06:32:39;100584.69;;;11.11;80.61
16525;BME280;8375;33.594;-117.718;2023-02-20T06:35:08;100576.28;;;11.08;80.34
16525;BME280;8375;33.594;-117.718;2023-02-20T06:37:37;100597.16;;;11.06;80.16
16525;BME280;8375;33.594;-117.718;2023-02-20T06:40:06;100592.91;;;11.05;80.03
16525;BME280;8375;33.594;-117.718;2023-02-20T06:42:36;100593.66;;;10.83;80.46
16525;BME280;8375;33.594;-117.718;2023-02-20T06:45:05;100595.03;;;10.76;81.20
16525;BME280;8375;33.594;-117.718;2023-02-20T06:47:34;100593.59;;;10.71;81.17
16525;BME280;8375;33.594;-117.718;2023-02-20T06:50:03;100597.22;;;10.69;81.38
16525;BME280;8375;33.594;-117.718;2023-02-20T06:52:32;100595.47;;;10.69;81.55
16525;BME280;8375;33.594;-117.718;2023-02-20T06:55:00;100597.34;;;10.67;81.83
16525;BME280;8375;33.594;-117.718;2023-02-20T06:57:31;100601.31;;;10.60;81.72
16525;BME280;8375;33.594;-117.718;2023-02-20T07:00:02;100604.94;;;10.57;82.26
16525;BME280;8375;33.594;-117.718;2023-02-20T07:02:31;100596.66;;;10.52;82.75
16525;BME280;8375;33.594;-117.718;2023-02-20T07:05:02;100590.81;;;10.49;82.91
16525;BME280;8375;33.594;-117.718;2023-02-20T07:07:31;100596.22;;;10.46;83.08
16525;BME280;8375;33.594;-117.718;2023-02-20T07:10:00;100605.69;;;10.47;83.29
16525;BME280;8375;33.594;-117.718;2023-02-20T07:12:29;100606.09;;;10.40;83.36
16525;BME280;8375;33.594;-117.718;2023-02-20T07:15:00;100602.16;;;10.35;83.28
16525;BME280;8375;33.594;-117.718;2023-02-20T07:17:28;100606.00;;;10.29;83.81
16525;BME280;8375;33.594;-117.718;2023-02-20T07:19:57;100604.75;;;10.22;83.95
16525;BME280;8375;33.594;-117.718;2023-02-20T07:22:26;100603.31;;;10.18;84.11
16525;BME280;8375;33.594;-117.718;2023-02-20T07:24:55;100608.91;;;10.11;83.22
16525;BME280;8375;33.594;-117.718;2023-02-20T07:27:23;100598.16;;;10.05;83.30
16525;BME280;8375;33.594;-117.718;2023-02-20T07:29:52;100606.94;;;10.02;83.88
16525;BME280;8375;33.594;-117.718;2023-02-20T07:32:22;100598.66;;;9.97;83.96
16525;BME280;8375;33.594;-117.718;2023-02-20T07:34:51;100592.75;;;9.95;83.74
16525;BME280;8375;33.594;-117.718;2023-02-20T07:37:20;100592.00;;;9.93;83.93
16525;BME280;8375;33.594;-117.718;2023-02-20T07:39:48;100596.59;;;9.89;83.73
16525;BME280;8375;33.594;-117.718;2023-02-20T07:42:17;100595.88;;;9.87;83.67
16525;BME280;8375;33.594;-117.718;2023-02-20T07:44:46;100600.41;;;9.83;84.21
16525;BME280;8375;33.594;-117.718;2023-02-20T07:47:15;100595.66;;;9.77;84.58
16525;BME280;8375;33.594;-117.718;2023-02-20T07:49:45;100591.38;;;9.76;84.63
16525;BME280;8375;33.594;-117.718;2023-02-20T07:52:14;100594.09;;;9.75;85.10
16525;BME280;8375;33.594;-117.718;2023-02-20T07:54:42;100590.13;;;9.69;84.71
16525;BME280;8375;33.594;-117.718;2023-02-20T07:57:11;100592.31;;;9.62;84.88
16525;BME280;8375;33.594;-117.718;2023-02-20T07:59:40;100600.91;;;9.63;84.98
16525;BME280;8375;33.594;-117.718;2023-02-20T08:02:09;100595.13;;;9.59;84.87
16525;BME280;8375;33.594;-117.718;2023-02-20T08:04:38;100593.66;;;9.55;85.06
16525;BME280;8375;33.594;-117.718;2023-02-20T08:07:08;100598.72;;;9.57;85.86
16525;BME280;8375;33.594;-117.718;2023-02-20T08:09:37;100593.88;;;9.52;86.67
16525;BME280;8375;33.594;-117.718;2023-02-20T08:12:05;100587.13;;;9.49;87.34
16525;BME280;8375;33.594;-117.718;2023-02-20T08:14:34;100586.59;;;9.44;87.72
16525;BME280;8375;33.594;-117.718;2023-02-20T08:17:03;100589.28;;;9.43;87.64
16525;BME280;8375;33.594;-117.718;2023-02-20T08:19:31;100576.53;;;9.39;87.72
16525;BME280;8375;33.594;-117.718;2023-02-20T08:22:00;100589.38;;;9.41;88.74
16525;BME280;8375;33.594;-117.718;2023-02-20T08:24:30;100587.19;;;9.35;88.97
16525;BME280;8375;33.594;-117.718;2023-02-20T08:26:59;100590.19;;;9.29;89.64
16525;BME280;8375;33.594;-117.718;2023-02-20T08:29:27;100590.91;;;9.31;89.33
16525;BME280;8375;33.594;-117.718;2023-02-20T08:31:56;100587.72;;;9.27;89.49
16525;BME280;8375;33.594;-117.718;2023-02-20T08:34:24;100581.81;;;9.25;89.62
16525;BME280;8375;33.594;-117.718;2023-02-20T08:36:53;100581.25;;;9.20;90.04
16525;BME280;8375;33.594;-117.718;2023-02-20T08:39:22;100568.94;;;9.23;90.49
16525;BME280;8375;33.594;-117.718;2023-02-20T08:41:53;100571.53;;;9.23;90.78
16525;BME280;8375;33.594;-117.718;2023-02-20T08:44:22;100570.91;;;9.20;90.35
16525;BME280;8375;33.594;-117.718;2023-02-20T08:46:51;100574.50;;;9.17;90.80
16525;BME280;8375;33.594;-117.718;2023-02-20T08:49:20;100564.53;;;9.11;91.25
16525;BME280;8375;33.594;-117.718;2023-02-20T08:51:52;100573.56;;;9.05;91.30
16525;BME280;8375;33.594;-117.718;2023-02-20T08:54:22;100569.19;;;9.06;91.11
16525;BME280;8375;33.594;-117.718;2023-02-20T08:56:50;100566.91;;;9.01;91.10
16525;BME280;8375;33.594;-117.718;2023-02-20T08:59:21;100571.44;;;8.98;90.37
16525;BME280;8375;33.594;-117.718;2023-02-20T09:01:49;100557.97;;;8.92;90.57
16525;BME280;8375;33.594;-117.718;2023-02-20T09:04:18;100555.88;;;8.85;90.52
16525;BME280;8375;33.594;-117.718;2023-02-20T09:06:48;100547.47;;;8.81;90.83
16525;BME280;8375;33.594;-117.718;2023-02-20T09:09:17;100554.56;;;8.64;91.79
16525;BME280;8375;33.594;-117.718;2023-02-20T09:11:45;100559.91;;;8.61;91.91
16525;BME280;8375;33.594;-117.718;2023-02-20T09:14:14;100555.78;;;8.59;91.86
16525;BME280;8375;33.594;-117.718;2023-02-20T09:16:44;100557.25;;;8.48;92.22
16525;BME280;8375;33.594;-117.718;2023-02-20T09:19:13;100557.25;;;8.48;91.99
16525;BME280;8375;33.594;-117.718;2023-02-20T09:21:45;100570.28;;;8.47;92.11
16525;BME280;8375;33.594;-117.718;2023-02-20T09:24:14;100570.84;;;8.52;92.20
16525;BME280;8375;33.594;-117.718;2023-02-20T09:26:42;100567.34;;;8.53;92.14
16525;BME280;8375;33.594;-117.718;2023-02-20T09:29:11;100576.69;;;8.56;92.18
16525;BME280;8375;33.594;-117.718;2023-02-20T09:31:39;100569.72;;;8.56;91.83
16525;BME280;8375;33.594;-117.718;2023-02-20T09:34:10;100583.50;;;8.57;91.72
16525;BME280;8375;33.594;-117.718;2023-02-20T09:36:38;100583.50;;;8.57;91.24
16525;BME280;8375;33.594;-117.718;2023-02-20T09:39:07;100586.09;;;8.57;91.13
16525;BME280;8375;33.594;-117.718;2023-02-20T09:41:44;100584.53;;;8.54;91.49
16525;BME280;8375;33.594;-117.718;2023-02-20T09:44:19;100578.16;;;8.45;91.45
16525;BME280;8375;33.594;-117.718;2023-02-20T09:46:51;100580.06;;;8.42;91.71
16525;BME280;8375;33.594;-117.718;2023-02-20T09:49:24;100580.53;;;8.48;92.26
16525;BME280;8375;33.594;-117.718;2023-02-20T09:52:00;100580.44;;;8.35;91.64
16525;BME280;8375;33.594;-117.718;2023-02-20T09:54:32;100577.69;;;8.24;91.59
16525;BME280;8375;33.594;-117.718;2023-02-20T09:57:04;100573.19;;;8.13;91.52
16525;BME280;8375;33.594;-117.718;2023-02-20T09:59:37;100569.94;;;8.10;91.96
16525;BME280;8375;33.594;-117.718;2023-02-20T10:02:15;100566.34;;;8.12;92.48
16525;BME280;8375;33.594;-117.718;2023-02-20T10:04:48;100568.84;;;8.14;92.97
16525;BME280;8375;33.594;-117.718;2023-02-20T10:07:22;100560.72;;;8.05;93.17
16525;BME280;8375;33.594;-117.718;2023-02-20T10:09:53;100560.16;;;8.00;92.60
16525;BME280;8375;33.594;-117.718;2023-02-20T10:12:27;100563.28;;;7.91;92.64
16525;BME280;8375;33.594;-117.718;2023-02-20T10:15:10;100555.72;;;7.88;92.93
16525;BME280;8375;33.594;-117.718;2023-02-20T10:17:51;100557.75;;;7.83;92.96
16525;BME280;8375;33.594;-117.718;2023-02-20T10:20:32;100558.56;;;7.83;93.47
16525;BME280;8375;33.594;-117.718;2023-02-20T10:23:10;100559.97;;;7.89;93.95
16525;BME280;8375;33.594;-117.718;2023-02-20T10:25:44;100557.84;;;7.96;94.75
16525;BME280;8375;33.594;-117.718;2023-02-20T10:28:16;100554.44;;;7.81;93.76
16525;BME280;8375;33.594;-117.718;2023-02-20T10:30:46;100562.63;;;7.73;93.56
16525;BME280;8375;33.594;-117.718;2023-02-20T10:33:30;100563.91;;;7.66;93.91
16525;BME280;8375;33.594;-117.718;2023-02-20T10:36:09;100565.00;;;7.61;93.73
16525;BME280;8375;33.594;-117.718;2023-02-20T10:38:44;100563.53;;;7.57;94.60
16525;BME280;8375;33.594;-117.718;2023-02-20T10:41:19;100555.59;;;7.60;94.54
16525;BME280;8375;33.594;-117.718;2023-02-20T10:43:54;100561.22;;;7.53;94.55
16525;BME280;8375;33.594;-117.718;2023-02-20T10:46:28;100563.25;;;7.47;94.67
16525;BME280;8375;33.594;-117.718;2023-02-20T10:49:00;100563.25;;;7.47;94.52
16525;BME280;8375;33.594;-117.718;2023-02-20T10:51:33;100561.25;;;7.37;94.49
16525;BME280;8375;33.594;-117.718;2023-02-20T10:54:09;100566.78;;;7.30;94.89
16525;BME280;8375;33.594;-117.718;2023-02-20T10:56:43;100559.69;;;7.34;94.94
16525;BME280;8375;33.594;-117.718;2023-02-20T10:59:18;100561.63;;;7.30;94.62
16525;BME280;8375;33.594;-117.718;2023-02-20T11:01:54;100560.81;;;7.30;95.03
16525;BME280;8375;33.594;-117.718;2023-02-20T11:04:26;100553.63;;;7.35;95.83
16525;BME280;8375;33.594;-117.718;2023-02-20T11:06:59;100559.59;;;7.36;95.86
16525;BME280;8375;33.594;-117.718;2023-02-20T11:09:28;100558.63;;;7.22;96.17
16525;BME280;8375;33.594;-117.718;2023-02-20T11:11:58;100551.63;;;7.24;95.99
16525;BME280;8375;33.594;-117.718;2023-02-20T11:14:32;100544.63;;;7.26;96.08
16525;BME280;8375;33.594;-117.718;2023-02-20T11:17:04;100546.19;;;7.14;94.46
16525;BME280;8375;33.594;-117.718;2023-02-20T11:19:40;100543.03;;;6.93;94.79
16525;BME280;8375;33.594;-117.718;2023-02-20T11:22:11;100538.16;;;6.88;94.94
16525;BME280;8375;33.594;-117.718;2023-02-20T11:24:41;100532.06;;;6.89;94.74
16525;BME280;8375;33.594;-117.718;2023-02-20T11:27:12;100540.56;;;6.92;94.63
16525;BME280;8375;33.594;-117.718;2023-02-20T11:29:47;100540.34;;;6.80;95.07
16525;BME280;8375;33.594;-117.718;2023-02-20T11:32:29;100537.50;;;6.69;95.19
16525;BME280;8375;33.594;-117.718;2023-02-20T11:35:14;100536.09;;;6.63;96.25
16525;BME280;8375;33.594;-117.718;2023-02-20T11:37:50;100536.78;;;6.67;96.18
16525;BME280;8375;33.594;-117.718;2023-02-20T11:40:24;100536.59;;;6.70;96.11
16525;BME280;8375;33.594;-117.718;2023-02-20T11:42:54;100528.88;;;6.70;96.59
16525;BME280;8375;33.594;-117.718;2023-02-20T11:45:24;100529.94;;;6.66;96.31
16525;BME280;8375;33.594;-117.718;2023-02-20T11:48:10;100528.28;;;6.65;96.45
16525;BME280;8375;33.594;-117.718;2023-02-20T11:50:40;100533.78;;;6.58;96.53
16525;BME280;8375;33.594;-117.718;2023-02-20T11:53:18;100523.69;;;6.54;96.99
16525;BME280;8375;33.594;-117.718;2023-02-20T11:55:48;100516.81;;;6.54;97.59
16525;BME280;8375;33.594;-117.718;2023-02-20T11:58:23;100511.47;;;6.57;97.84
16525;BME280;8375;33.594;-117.718;2023-02-20T12:00:54;100510.47;;;6.60;97.95
16525;BME280;8375;33.594;-117.718;2023-02-20T12:03:24;100503.00;;;6.55;98.10
16525;BME280;8375;33.594;-117.718;2023-02-20T12:05:54;100512.28;;;6.58;98.00
16525;BME280;8375;33.594;-117.718;2023-02-20T12:08:46;100509.06;;;6.54;98.07
16525;BME280;8375;33.594;-117.718;2023-02-20T12:11:19;100506.66;;;6.51;97.95
16525;BME280;8375;33.594;-117.718;2023-02-20T12:13:49;100508.97;;;6.56;97.25
16525;BME280;8375;33.594;-117.718;2023-02-20T12:16:28;100510.28;;;6.63;97.41
16525;BME280;8375;33.594;-117.718;2023-02-20T12:19:06;100496.66;;;6.61;97.45
16525;BME280;8375;33.594;-117.718;2023-02-20T12:21:43;100505.72;;;6.68;97.83
16525;BME280;8375;33.594;-117.718;2023-02-20T12:24:35;100511.53;;;6.72;97.59
16525;BME280;8375;33.594;-117.718;2023-02-20T12:27:22;100504.38;;;6.77;97.21
16525;BME280;8375;33.594;-117.718;2023-02-20T12:29:58;100500.13;;;6.76;96.59
16525;BME280;8375;33.594;-117.718;2023-02-20T12:32:37;100507.13;;;6.74;96.15
16525;BME280;8375;33.594;-117.718;2023-02-20T12:35:25;100498.03;;;6.83;96.20
16525;BME280;8375;33.594;-117.718;2023-02-20T12:38:03;100506.00;;;6.94;96.51
16525;BME280;8375;33.594;-117.718;2023-02-20T12:40:52;100509.69;;;7.21;96.88
16525;BME280;8375;33.594;-117.718;2023-02-20T12:43:32;100514.50;;;7.27;94.53
16525;BME280;8375;33.594;-117.718;2023-02-20T12:46:08;100516.16;;;6.97;93.05
16525;BME280;8375;33.594;-117.718;2023-02-20T12:48:50;100511.84;;;6.82;93.63
16525;BME280;8375;33.594;-117.718;2023-02-20T12:51:27;100523.16;;;6.95;95.06
16525;BME280;8375;33.594;-117.718;2023-02-20T12:54:16;100516.44;;;6.77;92.48
16525;BME280;8375;33.594;-117.718;2023-02-20T12:56:59;100512.47;;;6.55;93.00
16525;BME280;8375;33.594;-117.718;2023-02-20T12:59:37;100517.38;;;6.43;93.27
16525;BME280;8375;33.594;-117.718;2023-02-20T13:02:17;100520.78;;;6.28;94.30
16525;BME280;8375;33.594;-117.718;2023-02-20T13:04:52;100517.88;;;6.50;96.09
16525;BME280;8375;33.594;-117.718;2023-02-20T13:07:24;100520.13;;;6.56;95.15
16525;BME280;8375;33.594;-117.718;2023-02-20T13:10:00;100525.63;;;6.50;94.71